createdAt,value
2019-02-26T00:01:14.448Z,5.33
2019-02-26T00:04:03.187Z,5.31
2019-02-26T00:06:54.135Z,5.29
2019-02-26T00:09:45.929Z,5.22
2019-02-26T00:12:35.692Z,3.12
2019-02-26T00:15:25.660Z,5.15
2019-02-26T00:18:16.852Z,5.11
2019-02-26T00:21:07.800Z,5.12
2019-02-26T00:23:58.072Z,5.09
2019-02-26T00:26:48.087Z,5.06
2019-02-26T00:29:38.182Z,5.02
2019-02-26T00:32:29.821Z,5.00
2019-02-26T00:35:21.221Z,4.98
2019-02-26T00:38:13.325Z,4.94
2019-02-26T00:41:03.932Z,4.92
2019-02-26T00:43:55.278Z,4.91
2019-02-26T00:46:45.861Z,4.94
2019-02-26T00:49:35.780Z,4.93
2019-02-26T00:52:25.239Z,4.95
2019-02-26T00:55:15.243Z,4.99
2019-02-26T00:58:05.934Z,5.00
2019-02-26T01:00:56.314Z,4.98
2019-02-26T01:03:47.125Z,5.00
2019-02-26T01:06:37.870Z,4.99
2019-02-26T01:09:29.362Z,4.98
2019-02-26T01:12:19.213Z,4.94
2019-02-26T01:15:12.272Z,4.91
2019-02-26T01:18:03.203Z,4.90
2019-02-26T01:20:54.805Z,4.87
2019-02-26T01:23:45.723Z,4.82
2019-02-26T01:26:35.626Z,4.78
2019-02-26T01:29:26.047Z,4.77
2019-02-26T01:32:18.090Z,4.76
2019-02-26T01:35:10.685Z,4.73
2019-02-26T01:38:00.589Z,4.68
2019-02-26T01:40:51.892Z,4.64
2019-02-26T01:43:41.696Z,4.64
2019-02-26T01:46:34.414Z,4.61
2019-02-26T01:49:26.627Z,4.63
2019-02-26T01:52:17.461Z,4.67
2019-02-26T01:55:10.394Z,4.68
2019-02-26T01:58:00.063Z,4.67
2019-02-26T02:00:49.750Z,4.64
2019-02-26T02:03:39.318Z,4.63
2019-02-26T02:06:30.373Z,4.63
2019-02-26T02:09:22.755Z,4.60
2019-02-26T02:12:12.841Z,4.55
2019-02-26T02:15:02.805Z,4.47
2019-02-26T02:17:52.351Z,4.47
2019-02-26T02:20:42.232Z,4.45
2019-02-26T02:23:32.039Z,4.41
2019-02-26T02:26:21.782Z,4.35
2019-02-26T02:29:12.840Z,4.35
2019-02-26T02:32:05.083Z,4.27
2019-02-26T02:34:58.278Z,4.21
2019-02-26T02:37:46.550Z,4.19
2019-02-26T02:40:39.902Z,4.17
2019-02-26T02:43:28.332Z,4.12
2019-02-26T02:46:17.798Z,4.07
2019-02-26T02:49:09.686Z,4.04
2019-02-26T02:52:01.469Z,3.99
2019-02-26T02:54:51.880Z,3.98
2019-02-26T02:57:42.050Z,3.97
2019-02-26T03:00:34.342Z,3.94
2019-02-26T03:03:23.188Z,3.93
2019-02-26T03:06:12.911Z,3.93
2019-02-26T03:09:03.682Z,3.96
2019-02-26T03:11:55.404Z,3.97
2019-02-26T03:14:45.191Z,4.00
2019-02-26T03:17:35.028Z,4.00
2019-02-26T03:20:28.746Z,4.03
2019-02-26T03:23:20.014Z,4.01
2019-02-26T03:26:12.574Z,4.00
2019-02-26T03:29:00.560Z,4.03
2019-02-26T03:31:54.792Z,4.01
2019-02-26T03:34:41.977Z,3.97
2019-02-26T03:37:34.174Z,3.94
2019-02-26T03:40:24.929Z,3.90
2019-02-26T03:43:16.214Z,3.92
2019-02-26T03:46:06.206Z,3.92
2019-02-26T03:48:56.268Z,3.92
2019-02-26T03:51:46.495Z,3.92
2019-02-26T03:54:39.838Z,3.90
2019-02-26T03:57:28.085Z,3.91
2019-02-26T04:00:19.916Z,3.90
2019-02-26T04:03:12.447Z,3.89
2019-02-26T04:06:03.193Z,3.91
2019-02-26T04:08:53.776Z,3.90
2019-02-26T04:11:47.424Z,3.88
2019-02-26T04:14:36.067Z,3.85
2019-02-26T04:17:28.138Z,3.87
2019-02-26T04:20:17.657Z,3.84
2019-02-26T04:23:08.962Z,3.82
2019-02-26T04:26:44.382Z,3.80
2019-02-26T04:30:16.251Z,3.77
2019-02-26T04:33:49.422Z,3.71
2019-02-26T04:37:38.316Z,3.63
2019-02-26T04:41:19.544Z,3.56
2019-02-26T04:44:50.051Z,3.56
2019-02-26T04:47:40.567Z,3.55
2019-02-26T04:50:32.387Z,3.55
2019-02-26T04:53:23.041Z,3.58
2019-02-26T04:56:15.013Z,3.63
2019-02-26T04:59:06.245Z,3.68
2019-02-26T05:01:57.405Z,3.70
2019-02-26T05:04:47.283Z,3.74
2019-02-26T05:07:38.499Z,3.75
2019-02-26T05:10:31.819Z,3.73
2019-02-26T05:13:22.010Z,3.74
2019-02-26T05:16:12.256Z,3.74
2019-02-26T05:19:01.953Z,3.72
2019-02-26T05:21:53.513Z,3.73
2019-02-26T05:24:47.099Z,3.73
2019-02-26T05:27:36.328Z,3.71
2019-02-26T05:30:27.303Z,3.69
2019-02-26T05:33:18.471Z,3.67
2019-02-26T05:36:11.555Z,3.65
2019-02-26T05:39:02.303Z,3.62
2019-02-26T05:41:55.562Z,3.62
2019-02-26T05:44:45.365Z,3.60
2019-02-26T05:47:35.419Z,3.55
2019-02-26T05:50:25.082Z,3.55
2019-02-26T05:53:15.153Z,3.53
2019-02-26T05:56:05.405Z,3.49
2019-02-26T05:58:55.282Z,3.44
2019-02-26T06:01:46.562Z,3.43
2019-02-26T06:04:38.391Z,3.43
2019-02-26T06:07:31.323Z,3.41
2019-02-26T06:10:21.563Z,3.37
2019-02-26T06:13:13.581Z,3.33
2019-02-26T06:16:05.372Z,3.31
2019-02-26T06:18:55.203Z,3.27
2019-02-26T06:21:47.413Z,3.29
2019-02-26T06:24:38.080Z,3.30
2019-02-26T06:27:27.911Z,3.30
2019-02-26T06:30:18.694Z,3.34
2019-02-26T06:33:09.713Z,3.40
2019-02-26T06:36:01.752Z,3.44
2019-02-26T06:38:53.915Z,3.48
2019-02-26T06:41:44.368Z,3.51
2019-02-26T06:44:36.868Z,3.57
2019-02-26T06:47:29.287Z,3.63
2019-02-26T06:50:19.059Z,3.64
2019-02-26T06:53:10.989Z,3.67
2019-02-26T06:56:00.774Z,3.69
2019-02-26T06:58:50.878Z,3.73
2019-02-26T07:01:41.985Z,3.78
2019-02-26T07:04:31.709Z,3.85
2019-02-26T07:07:21.534Z,3.93
2019-02-26T07:10:16.306Z,4.02
2019-02-26T07:13:07.437Z,4.13
2019-02-26T07:15:57.343Z,4.33
2019-02-26T07:18:47.595Z,4.81
2019-02-26T07:21:38.010Z,5.47
2019-02-26T07:24:29.331Z,5.92
2019-02-26T07:27:18.987Z,6.13
2019-02-26T07:30:09.686Z,6.26
2019-02-26T07:32:59.771Z,6.24
2019-02-26T07:35:49.419Z,6.25
2019-02-26T07:38:41.605Z,6.30
2019-02-26T07:41:31.036Z,6.35
2019-02-26T07:44:23.436Z,6.55
2019-02-26T07:47:12.488Z,7.18
2019-02-26T07:50:04.634Z,7.86
2019-02-26T07:52:56.905Z,8.55
2019-02-26T07:55:46.916Z,9.14
2019-02-26T07:58:39.077Z,9.94
2019-02-26T08:01:28.526Z,10.83
2019-02-26T08:04:18.721Z,11.57
2019-02-26T08:07:08.504Z,11.89
2019-02-26T08:09:58.580Z,11.72
2019-02-26T08:12:49.392Z,11.67
2019-02-26T08:15:39.872Z,11.62
2019-02-26T08:18:29.701Z,11.44
2019-02-26T08:21:21.739Z,11.22
2019-02-26T08:24:13.039Z,11.07
2019-02-26T08:27:03.395Z,11.03
2019-02-26T08:29:56.973Z,11.38
2019-02-26T08:32:51.151Z,12.07
2019-02-26T08:35:38.394Z,13.12
2019-02-26T08:38:30.065Z,14.15
2019-02-26T08:41:19.478Z,14.65
2019-02-26T08:44:09.523Z,14.77
2019-02-26T08:46:59.547Z,14.64
2019-02-26T08:49:49.604Z,14.51
2019-02-26T08:52:39.582Z,14.54
2019-02-26T08:55:29.347Z,14.59
2019-02-26T08:58:19.108Z,14.82
2019-02-26T09:01:08.971Z,15.04
2019-02-26T09:04:00.689Z,15.11
2019-02-26T09:06:51.910Z,14.97
2019-02-26T09:09:41.746Z,15.10
2019-02-26T09:12:31.843Z,15.51
2019-02-26T09:15:22.212Z,15.74
2019-02-26T09:18:12.255Z,15.70
2019-02-26T09:21:01.298Z,15.72
2019-02-26T09:23:54.938Z,15.53
2019-02-26T09:26:43.181Z,15.34
2019-02-26T09:29:34.344Z,15.51
2019-02-26T09:32:24.376Z,15.85
2019-02-26T09:35:16.880Z,16.29
2019-02-26T09:38:07.758Z,16.87
2019-02-26T09:40:57.557Z,17.36
2019-02-26T09:43:48.131Z,17.85
2019-02-26T09:46:39.356Z,18.11
2019-02-26T09:49:31.456Z,18.57
2019-02-26T09:52:25.178Z,19.12
2019-02-26T09:55:14.492Z,19.25
2019-02-26T09:58:04.440Z,19.01
2019-02-26T10:00:54.240Z,18.86
2019-02-26T10:03:44.025Z,19.39
2019-02-26T10:06:34.951Z,19.96
2019-02-26T10:09:24.742Z,20.28
2019-02-26T10:12:15.674Z,20.78
2019-02-26T10:15:06.338Z,21.26
2019-02-26T10:17:58.790Z,21.98
2019-02-26T10:20:49.928Z,22.74
2019-02-26T10:23:39.535Z,23.28
2019-02-26T10:26:30.764Z,23.36
2019-02-26T10:29:20.730Z,23.41
2019-02-26T10:32:11.774Z,23.33
2019-02-26T10:35:01.857Z,23.43
2019-02-26T10:37:53.888Z,23.51
2019-02-26T10:40:53.546Z,23.24
2019-02-26T10:43:35.173Z,22.83
2019-02-26T10:46:24.982Z,22.71
2019-02-26T10:49:15.020Z,22.86
2019-02-26T10:52:04.940Z,22.96
2019-02-26T10:54:55.663Z,23.09
2019-02-26T10:57:47.805Z,23.41
2019-02-26T11:00:38.140Z,23.94
2019-02-26T11:03:29.865Z,24.68
2019-02-26T11:06:21.250Z,25.45
2019-02-26T11:09:18.007Z,26.11
2019-02-26T11:12:08.315Z,26.80
2019-02-26T11:14:58.562Z,27.40
2019-02-26T11:17:51.336Z,27.98
2019-02-26T11:20:41.026Z,28.57
2019-02-26T11:23:33.398Z,28.88
2019-02-26T11:26:22.225Z,28.94
2019-02-26T11:29:12.050Z,28.90
2019-02-26T11:32:04.231Z,28.89
2019-02-26T11:34:55.118Z,28.91
2019-02-26T11:37:47.200Z,29.25
2019-02-26T11:40:37.003Z,29.44
2019-02-26T11:43:28.938Z,29.36
2019-02-26T11:46:20.006Z,29.28
2019-02-26T11:49:11.878Z,29.43
2019-02-26T11:52:04.411Z,29.48
2019-02-26T11:54:53.252Z,29.54
2019-02-26T11:57:45.682Z,29.72
2019-02-26T12:00:45.502Z,29.80
2019-02-26T12:03:36.373Z,30.01
2019-02-26T12:06:25.672Z,30.07
2019-02-26T12:09:16.206Z,30.16
2019-02-26T12:12:08.669Z,30.03
2019-02-26T12:14:57.872Z,29.99
2019-02-26T12:17:51.758Z,30.05
2019-02-26T12:20:43.449Z,29.89
2019-02-26T12:23:34.480Z,29.40
2019-02-26T12:26:25.556Z,29.18
2019-02-26T12:29:18.657Z,29.00
2019-02-26T12:32:08.819Z,28.87
2019-02-26T12:34:58.995Z,28.92
2019-02-26T12:37:50.117Z,29.08
2019-02-26T12:40:44.677Z,29.09
2019-02-26T12:43:36.108Z,28.84
2019-02-26T12:46:27.534Z,28.51
2019-02-26T12:49:18.440Z,27.94
2019-02-26T12:52:09.444Z,27.52
2019-02-26T12:55:00.812Z,26.96
2019-02-26T12:57:52.799Z,26.37
2019-02-26T13:00:42.709Z,25.87
2019-02-26T13:03:38.107Z,25.38
2019-02-26T13:06:25.180Z,24.97
2019-02-26T13:09:15.263Z,24.66
2019-02-26T13:12:05.025Z,24.49
2019-02-26T13:15:02.308Z,24.37
2019-02-26T13:17:48.877Z,24.13
2019-02-26T13:20:38.038Z,23.94
2019-02-26T13:23:28.226Z,23.86
2019-02-26T13:26:19.743Z,23.80
2019-02-26T13:29:09.536Z,23.76
2019-02-26T13:32:00.206Z,23.69
2019-02-26T13:34:52.502Z,23.75
2019-02-26T13:37:42.481Z,23.79
2019-02-26T13:40:38.190Z,23.66
2019-02-26T13:43:23.968Z,23.43
2019-02-26T13:46:14.172Z,23.10
2019-02-26T13:49:03.949Z,22.80
2019-02-26T13:51:53.779Z,22.20
2019-02-26T13:54:43.646Z,21.77
2019-02-26T13:57:33.698Z,21.50
2019-02-26T14:00:26.750Z,21.18
2019-02-26T14:03:15.413Z,20.91
2019-02-26T14:06:05.714Z,20.65
2019-02-26T14:08:55.750Z,20.38
2019-02-26T14:11:47.012Z,20.25
2019-02-26T14:14:36.579Z,20.12
2019-02-26T14:17:26.311Z,20.01
2019-02-26T14:20:15.919Z,19.95
2019-02-26T14:23:05.523Z,19.73
2019-02-26T14:25:55.519Z,19.63
2019-02-26T14:28:45.809Z,19.59
2019-02-26T14:31:35.611Z,19.49
2019-02-26T14:34:25.822Z,19.49
2019-02-26T14:37:15.576Z,19.40
2019-02-26T14:40:07.207Z,19.39
2019-02-26T14:42:57.068Z,19.32
2019-02-26T14:45:46.947Z,19.36
2019-02-26T14:48:36.979Z,19.33
2019-02-26T14:51:28.150Z,19.29
2019-02-26T14:54:18.298Z,19.25
2019-02-26T14:57:08.193Z,19.18
2019-02-26T14:59:57.986Z,19.19
2019-02-26T15:02:47.789Z,19.18
2019-02-26T15:05:37.574Z,19.15
2019-02-26T15:08:27.624Z,19.18
2019-02-26T15:11:17.262Z,19.20
2019-02-26T15:14:07.317Z,19.24
2019-02-26T15:16:57.577Z,19.26
2019-02-26T15:19:50.453Z,19.29
2019-02-26T15:22:38.716Z,19.26
2019-02-26T15:25:29.049Z,19.25
2019-02-26T15:28:19.556Z,19.25
2019-02-26T15:31:09.679Z,19.19
2019-02-26T15:34:00.754Z,19.16
2019-02-26T15:36:50.791Z,19.12
2019-02-26T15:39:41.869Z,19.10
2019-02-26T15:42:32.071Z,18.99
2019-02-26T15:45:23.931Z,18.90
2019-02-26T15:48:13.859Z,18.86
2019-02-26T15:51:03.416Z,18.76
2019-02-26T15:53:55.670Z,18.68
2019-02-26T15:56:45.258Z,18.68
2019-02-26T15:59:35.613Z,18.62
2019-02-26T16:02:28.312Z,18.58
2019-02-26T16:05:17.737Z,18.53
2019-02-26T16:08:07.473Z,18.54
2019-02-26T16:10:58.558Z,18.51
2019-02-26T16:13:49.623Z,18.47
2019-02-26T16:16:40.044Z,18.41
2019-02-26T16:19:29.683Z,18.34
2019-02-26T16:22:19.251Z,18.26
2019-02-26T16:25:09.544Z,18.17
2019-02-26T16:27:59.392Z,18.10
2019-02-26T16:30:49.588Z,18.00
2019-02-26T16:33:39.270Z,17.91
2019-02-26T16:36:31.600Z,17.84
2019-02-26T16:39:22.572Z,17.74
2019-02-26T16:42:12.362Z,17.61
2019-02-26T16:45:02.092Z,17.50
2019-02-26T16:47:53.188Z,17.39
2019-02-26T16:50:45.155Z,17.27
2019-02-26T16:53:34.498Z,17.16
2019-02-26T16:56:24.366Z,17.05
2019-02-26T16:59:15.159Z,16.98
2019-02-26T17:02:05.434Z,16.91
2019-02-26T17:04:55.137Z,16.86
2019-02-26T17:07:45.598Z,16.75
2019-02-26T17:10:35.457Z,16.71
2019-02-26T17:13:25.236Z,16.66
2019-02-26T17:16:15.201Z,16.57
2019-02-26T17:19:05.089Z,16.47
2019-02-26T17:21:54.555Z,16.36
2019-02-26T17:24:44.536Z,16.28
2019-02-26T17:27:36.581Z,16.13
2019-02-26T17:30:26.165Z,16.03
2019-02-26T17:33:15.777Z,15.92
2019-02-26T17:36:05.210Z,15.80
2019-02-26T17:38:55.057Z,15.67
2019-02-26T17:41:45.331Z,15.51
2019-02-26T17:44:34.744Z,15.36
2019-02-26T17:47:24.715Z,15.21
2019-02-26T17:50:19.484Z,15.03
2019-02-26T17:53:09.517Z,14.85
2019-02-26T17:55:59.720Z,14.69
2019-02-26T17:58:49.869Z,14.55
2019-02-26T18:01:40.056Z,14.39
2019-02-26T18:04:29.951Z,14.21
2019-02-26T18:07:21.735Z,14.05
2019-02-26T18:10:13.519Z,13.93
2019-02-26T18:13:03.341Z,13.79
2019-02-26T18:15:56.117Z,13.67
2019-02-26T18:18:43.926Z,13.52
2019-02-26T18:21:34.015Z,13.42
2019-02-26T18:24:24.053Z,13.33
2019-02-26T18:27:14.127Z,13.21
2019-02-26T18:30:05.426Z,13.13
2019-02-26T18:32:57.366Z,13.03
2019-02-26T18:35:46.515Z,12.99
2019-02-26T18:38:36.395Z,12.89
2019-02-26T18:41:26.184Z,12.81
2019-02-26T18:44:17.839Z,12.74
2019-02-26T18:47:07.903Z,12.69
2019-02-26T18:49:57.351Z,12.61
2019-02-26T18:52:47.443Z,12.51
2019-02-26T18:55:36.975Z,12.41
2019-02-26T18:58:27.368Z,12.29
2019-02-26T19:01:17.087Z,12.16
2019-02-26T19:04:07.130Z,12.10
2019-02-26T19:06:59.471Z,12.02
2019-02-26T19:09:48.854Z,11.92
2019-02-26T19:12:39.844Z,11.83
2019-02-26T19:15:29.986Z,11.73
2019-02-26T19:18:20.150Z,11.63
2019-02-26T19:21:10.157Z,11.56
2019-02-26T19:24:04.408Z,11.51
2019-02-26T19:26:51.266Z,11.45
2019-02-26T19:29:40.769Z,11.37
2019-02-26T19:32:30.419Z,11.30
2019-02-26T19:35:20.695Z,11.23
2019-02-26T19:38:10.794Z,11.16
2019-02-26T19:41:05.084Z,11.11
2019-02-26T19:43:54.444Z,11.04
2019-02-26T19:46:44.899Z,10.98
2019-02-26T19:49:36.834Z,10.90
2019-02-26T19:52:25.987Z,10.82
2019-02-26T19:55:23.613Z,10.76
2019-02-26T19:58:12.859Z,10.68
2019-02-26T20:01:02.741Z,10.60
2019-02-26T20:03:52.444Z,7.63
2019-02-26T20:06:42.719Z,10.41
2019-02-26T20:09:32.860Z,10.34
2019-02-26T20:12:22.962Z,10.27
2019-02-26T20:15:13.438Z,10.21
2019-02-26T20:18:02.888Z,10.19
2019-02-26T20:20:52.342Z,10.15
2019-02-26T20:23:42.483Z,10.07
2019-02-26T20:26:32.759Z,10.06
2019-02-26T20:29:22.898Z,10.00
2019-02-26T20:32:12.927Z,7.29
2019-02-26T20:35:02.760Z,9.85
2019-02-26T20:37:54.332Z,9.76
2019-02-26T20:40:48.727Z,9.71
2019-02-26T20:43:37.327Z,9.65
2019-02-26T20:46:27.714Z,9.55
2019-02-26T20:49:17.742Z,9.51
2019-02-26T20:52:08.416Z,9.48
2019-02-26T20:54:58.791Z,9.41
2019-02-26T20:57:48.708Z,9.39
2019-02-26T21:00:42.539Z,9.33
2019-02-26T21:03:31.380Z,9.27
2019-02-26T21:06:21.584Z,9.20
2019-02-26T21:09:12.106Z,9.15
2019-02-26T21:12:03.109Z,9.07
2019-02-26T21:14:52.902Z,9.05
2019-02-26T21:17:42.752Z,8.99
2019-02-26T21:20:32.581Z,8.93
2019-02-26T21:23:22.807Z,8.87
2019-02-26T21:26:12.564Z,8.79
2019-02-26T21:29:05.697Z,8.77
2019-02-26T21:31:54.122Z,8.74
2019-02-26T21:34:47.315Z,8.66
2019-02-26T21:37:36.079Z,8.62
2019-02-26T21:40:26.055Z,8.53
2019-02-26T21:43:15.715Z,8.52
2019-02-26T21:46:05.731Z,8.46
2019-02-26T21:48:55.750Z,8.42
2019-02-26T21:51:45.995Z,8.42
2019-02-26T21:54:36.793Z,8.38
2019-02-26T21:57:26.828Z,8.32
2019-02-26T22:00:17.579Z,8.27
2019-02-26T22:03:07.777Z,8.21
2019-02-26T22:06:04.981Z,8.19
2019-02-26T22:08:49.646Z,8.15
2019-02-26T22:11:39.681Z,8.10
2019-02-26T22:14:29.461Z,8.05
2019-02-26T22:17:19.571Z,7.99
2019-02-26T22:20:21.644Z,7.99
2019-02-26T22:23:02.865Z,7.95
2019-02-26T22:25:54.055Z,7.88
2019-02-26T22:28:43.959Z,7.86
2019-02-26T22:31:34.597Z,7.83
2019-02-26T22:34:24.618Z,7.81
2019-02-26T22:37:14.423Z,7.76
2019-02-26T22:40:04.731Z,7.68
2019-02-26T22:42:54.605Z,7.66
2019-02-26T22:45:44.662Z,7.66
2019-02-26T22:48:34.847Z,7.63
2019-02-26T22:51:24.507Z,7.57
2019-02-26T22:54:14.362Z,7.56
2019-02-26T22:57:04.311Z,7.54
2019-02-26T22:59:54.085Z,7.50
2019-02-26T23:02:44.119Z,7.47
2019-02-26T23:05:34.117Z,7.42
2019-02-26T23:08:23.981Z,7.36
2019-02-26T23:11:16.062Z,7.34
2019-02-26T23:14:08.012Z,7.33
2019-02-26T23:16:58.699Z,7.30
2019-02-26T23:19:49.605Z,7.28
2019-02-26T23:22:39.788Z,7.22
2019-02-26T23:25:30.846Z,7.20
2019-02-26T23:28:21.949Z,7.19
2019-02-26T23:31:12.679Z,7.19
2019-02-26T23:34:02.766Z,7.21
2019-02-26T23:36:52.971Z,7.17
2019-02-26T23:39:43.234Z,7.13
2019-02-26T23:42:33.478Z,7.12
2019-02-26T23:45:24.223Z,7.11
2019-02-26T23:48:14.401Z,7.08
2019-02-26T23:51:04.191Z,7.03
2019-02-26T23:53:53.934Z,6.97
2019-02-26T23:56:43.794Z,6.93
2019-02-26T23:59:34.794Z,6.89
